createdAt,value
2022-12-11T00:01:32.945Z,0.30
2022-12-11T00:11:34.854Z,0.20
2022-12-11T00:21:37.660Z,0.20
2022-12-11T00:31:39.572Z,0.30
2022-12-11T00:41:41.410Z,0.30
2022-12-11T00:51:43.313Z,0.30
2022-12-11T01:01:45.238Z,0.20
2022-12-11T01:11:47.081Z,0.30
2022-12-11T01:21:48.900Z,0.20
2022-12-11T01:31:50.855Z,0.20
2022-12-11T01:41:58.425Z,0.20
2022-12-11T01:52:11.341Z,0.20
2022-12-11T02:02:30.316Z,0.20
2022-12-11T02:12:47.016Z,0.20
2022-12-11T02:23:13.475Z,0.20
2022-12-11T02:33:17.084Z,0.20
2022-12-11T02:43:20.188Z,0.20
2022-12-11T02:53:26.138Z,0.10
2022-12-11T03:03:30.114Z,0.10
2022-12-11T03:13:32.463Z,0.20
2022-12-11T03:23:46.268Z,0.10
2022-12-11T03:33:52.613Z,0.10
2022-12-11T03:43:57.703Z,0.00
2022-12-11T03:54:00.350Z,0.10
2022-12-11T04:04:02.314Z,0.00
2022-12-11T04:14:10.010Z,0.00
2022-12-11T04:24:11.830Z,-0.10
2022-12-11T04:34:13.651Z,-0.20
2022-12-11T04:44:15.517Z,-0.30
2022-12-11T04:54:17.363Z,-0.30
2022-12-11T05:04:19.338Z,-0.20
2022-12-11T05:14:21.492Z,-0.20
2022-12-11T05:24:23.307Z,-0.30
2022-12-11T05:34:25.153Z,-0.40
2022-12-11T05:44:27.486Z,-0.40
2022-12-11T05:54:29.311Z,-0.40
2022-12-11T06:04:31.090Z,-0.40
2022-12-11T06:14:33.012Z,-0.50
2022-12-11T06:24:34.941Z,-0.40
2022-12-11T06:34:36.804Z,-0.50
2022-12-11T06:44:39.145Z,-0.50
2022-12-11T06:54:40.959Z,-0.50
2022-12-11T07:04:43.179Z,-0.50
2022-12-11T07:14:45.096Z,-0.60
2022-12-11T07:24:46.997Z,-0.70
2022-12-11T07:34:51.905Z,-0.70
2022-12-11T07:44:54.739Z,-0.70
2022-12-11T07:54:56.612Z,-0.70
2022-12-11T08:04:58.553Z,-0.80
2022-12-11T08:15:00.433Z,-0.90
2022-12-11T08:25:02.228Z,-0.80
2022-12-11T08:35:04.244Z,-0.80
2022-12-11T08:45:06.838Z,-0.90
2022-12-11T08:55:09.356Z,-0.90
2022-12-11T09:05:11.661Z,-0.90
2022-12-11T09:15:13.999Z,-1.00
2022-12-11T09:25:16.204Z,-1.00
2022-12-11T09:35:18.146Z,-0.90
2022-12-11T09:45:20.625Z,-1.10
2022-12-11T09:55:25.583Z,-1.00
2022-12-11T10:06:06.540Z,-1.20
2022-12-11T10:16:20.809Z,-1.10
2022-12-11T10:26:24.132Z,-1.20
2022-12-11T10:36:40.994Z,-1.20
2022-12-11T10:46:43.250Z,-1.20
2022-12-11T10:56:48.389Z,-1.20
2022-12-11T11:07:01.981Z,-1.30
2022-12-11T11:17:04.060Z,-1.30
2022-12-11T11:27:18.429Z,-1.30
2022-12-11T11:37:32.462Z,-1.30
2022-12-11T11:47:43.185Z,-1.50
2022-12-11T11:57:59.764Z,-1.50
2022-12-11T12:08:14.077Z,-1.50
2022-12-11T12:18:22.907Z,-1.50
2022-12-11T12:28:39.677Z,-1.70
2022-12-11T12:39:07.283Z,-1.60
2022-12-11T12:49:20.142Z,-1.50
2022-12-11T12:59:24.730Z,-1.60
2022-12-11T13:09:28.197Z,-1.70
2022-12-11T13:19:33.741Z,-1.60
2022-12-11T13:29:41.202Z,-1.70
2022-12-11T13:39:47.056Z,-1.80
2022-12-11T13:49:55.053Z,-1.80
2022-12-11T13:59:58.442Z,-1.90
2022-12-11T14:10:27.052Z,-1.80
2022-12-11T14:20:31.936Z,-2.00
2022-12-11T14:30:36.150Z,-2.00
2022-12-11T14:40:45.248Z,-2.00
2022-12-11T14:50:56.994Z,-2.10
2022-12-11T15:01:20.552Z,-2.20
2022-12-11T15:11:25.161Z,-2.10
2022-12-11T15:21:35.691Z,-2.30
2022-12-11T15:31:37.509Z,-2.40
2022-12-11T15:41:41.952Z,-2.40
2022-12-11T15:51:43.788Z,-2.50
2022-12-11T16:01:45.720Z,-2.50
2022-12-11T16:11:47.613Z,-2.40
2022-12-11T16:21:49.566Z,-2.40
2022-12-11T16:31:51.870Z,-2.50
2022-12-11T16:41:53.832Z,-2.50
2022-12-11T16:51:55.724Z,-2.50
2022-12-11T17:01:57.666Z,-2.60
2022-12-11T17:11:59.543Z,-2.50
2022-12-11T17:22:01.428Z,-2.60
2022-12-11T17:32:03.378Z,-2.60
2022-12-11T17:42:05.381Z,-2.70
2022-12-11T17:52:07.516Z,-2.70
2022-12-11T18:02:09.876Z,-2.80
2022-12-11T18:12:11.783Z,-2.80
2022-12-11T18:22:13.678Z,-2.80
2022-12-11T18:32:15.672Z,-2.80
2022-12-11T18:42:34.066Z,-2.80
2022-12-11T18:52:36.006Z,-2.80
2022-12-11T19:02:38.152Z,-2.80
2022-12-11T19:12:39.963Z,-2.80
2022-12-11T19:22:41.980Z,-2.90
2022-12-11T19:32:44.274Z,-2.90
2022-12-11T19:42:46.145Z,-2.80
2022-12-11T19:52:48.061Z,-2.90
2022-12-11T20:02:50.028Z,-2.80
2022-12-11T20:12:51.909Z,-2.80
2022-12-11T20:22:56.198Z,-2.80
2022-12-11T20:32:58.005Z,-2.80
2022-12-11T20:42:59.842Z,-2.70
2022-12-11T20:53:01.681Z,-2.70
2022-12-11T21:03:04.133Z,-2.80
2022-12-11T21:13:06.002Z,-2.80
2022-12-11T21:23:07.913Z,-2.70
2022-12-11T21:33:10.036Z,-2.70
2022-12-11T21:43:11.881Z,-2.70
2022-12-11T21:53:13.693Z,-2.60
2022-12-11T22:03:15.500Z,-2.60
2022-12-11T22:13:17.341Z,-2.70
2022-12-11T22:23:19.286Z,-2.60
2022-12-11T22:33:21.522Z,-2.70
2022-12-11T22:43:23.370Z,-2.60
2022-12-11T22:53:25.195Z,-2.60
2022-12-11T23:03:28.474Z,-2.70
2022-12-11T23:13:30.456Z,-2.60
2022-12-11T23:23:32.391Z,-2.80
2022-12-11T23:33:34.277Z,-2.70
2022-12-11T23:43:37.492Z,-2.80
2022-12-11T23:53:39.535Z,-2.80
